To NAV CANADA Home Page Login to a new session Search on AWWS site Feedback and Comments Disclaimer Vers la page française équivalente Tips FAQ What's new on the site To the Forecasts and Observations / NOTAM section To "File a Flight Plan" website Publications and other links Update of the User's profile FIC Telephone Numbers My Weather Data Folder Route Weather Data Regional Weather Data Local Weather Data To the Forecasts and Observations / NOTAM section
Request Generated 08/25/2016 at 21:53:40 UTC . Weather information available at that time is displayed.

METAR/TAF

CAPE DORSET/NU    (show WxCam)

METAR CYTE 252100Z AUTO 10016KT 8SM OVC003 05/05 A2944 RMK SLP973=
SPECI CYTE 252055Z AUTO 10016G22KT 6SM BR OVC003 05/05 A2943 RMK
SLP971=
SPECI CYTE 252051Z AUTO 10017G22KT 3SM BR OVC003 05/05 A2943 RMK
SLP971=
SPECI CYTE 252049Z AUTO 10018KT 2 1/4SM BR OVC003 05/05 A2943 RMK
SLP970=
SPECI CYTE 252040Z AUTO 10018KT 3/4SM BR VV003 05/05 A2943 RMK
SLP970=
SPECI CYTE 252007Z AUTO 11018G24KT 1 3/4SM -RA BR OVC003 05/05 A2942
RMK VIS VRB 1-2 1/2 SLP967=
METAR CYTE 252000Z AUTO 11020G26KT 2 1/2SM -RA BR OVC003 05/05 A2942
RMK VIS VRB 2-3 SLP967=
SPECI CYTE 251957Z AUTO 11019G26KT 3SM -RA BR OVC003 05/05 A2942 RMK
SLP967=
SPECI CYTE 251942Z AUTO 10021G27KT 5SM BR OVC003 05/05 A2941 RMK
SLP966=
SPECI CYTE 251937Z AUTO 10020G27KT 6SM BR OVC005 05/05 A2941 RMK
SLP966=
SPECI CYTE 251932Z AUTO 10020G25KT 3SM BR OVC005 05/05 A2941 RMK
SLP965=
SPECI CYTE 251920Z AUTO 10018KT 3SM -RA BR BKN005 OVC008 05/05 A2941
RMK SLP966=
SPECI CYTE 251919Z AUTO 10017G23KT 3SM -RA BR OVC008 05/05 A2941 RMK
SLP966=
SPECI CYTE 251913Z AUTO 10018G26KT 5SM BR OVC008 05/05 A2941 RMK
SLP966=
SPECI CYTE 251907Z AUTO 10020G26KT 9SM BKN008 OVC013 05/05 A2941 RMK
SLP963=
SPECI CYTE 251903Z AUTO 10020KT 6SM BR FEW003 OVC010 05/05 A2941 RMK
SLP963=
METAR CYTE 251900Z AUTO 10019KT 5SM BR FEW003 OVC010 05/05 A2941 RMK
SLP965=

TAF CYTE 251846Z 2519/2607 11015G25KT 2SM -DZ BR OVC003 TEMPO
2519/2607 6SM BR OVC006
RMK NXT FCST BY 260100Z=
Your time UTC time
Weather data provided by Environment Canada and NAV CANADA